FW7200 Weather Reports


Display with metric or nautical units.
time (UTC)temp
F
wind
direction
speed
MPH
gust
MPH
rain 1hr
in
rain 24hr
in
rain mn
in
humidity
%
barometer
mb
20200707194949 88 180 7.0 8.0 0.00 0.00 0.00 43 1010.0
20200707194447 89 163 1.0 2.0 0.00 0.00 0.00 44 1010.0
20200707193945 87 151 3.0 5.0 0.00 0.00 0.00 47 1010.0
20200707193440 87 187 5.0 5.0 0.00 0.00 0.00 47 1010.3
20200707192939 87 179 5.0 5.0 0.00 0.00 0.00 47 1010.3
20200707192436 86 224 3.0 5.0 0.00 0.00 0.00 51 1010.3
20200707191934 84 199 6.0 8.0 0.00 0.00 0.00 52 1010.3
20200707191428 83 172 2.0 2.0 0.00 0.00 0.00 54 1010.3
20200707190926 82 193 5.0 5.0 0.00 0.00 0.00 54 1010.3
20200707190423 82 106 5.0 8.0 0.00 0.00 0.00 55 1010.3
20200707185922 84 156 4.0 5.0 0.00 0.00 0.00 52 1010.3
20200707185417 86 182 6.0 8.0 0.00 0.00 0.00 50 1010.3
20200707184913 89 183 0.0 0.0 0.00 0.00 0.00 48 1010.3
20200707184410 89 197 0.0 0.0 0.00 0.00 0.00 49 1010.3
20200707183910 90 214 0.0 0.0 0.00 0.00 0.00 48 1010.3
20200707183404 90 215 0.0 0.0 0.00 0.00 0.00 47 1010.7
20200707182903 90 170 0.0 0.0 0.00 0.00 0.00 47 1010.7
20200707182358 89 295 3.0 5.0 0.00 0.00 0.00 52 1010.3
20200707181856 90 313 6.0 8.0 0.00 0.00 0.00 50 1010.3
20200707181353 90 274 1.0 2.0 0.00 0.00 0.00 45 1010.3
20200707180851 90 260 1.0 2.0 0.00 0.00 0.00 49 1010.7
20200707180351 90 224 0.0 0.0 0.00 0.00 0.00 49 1010.7
20200707175848 89 206 0.0 0.0 0.00 0.00 0.00 50 1011.0
20200707175345 87 308 6.0 8.0 0.00 0.00 0.00 51 1011.0
20200707174844 89 299 0.0 0.0 0.00 0.00 0.00 50 1011.0
20200707174343 91 166 0.0 0.0 0.00 0.00 0.00 47 1011.0
20200707173838 90 199 0.0 0.0 0.00 0.00 0.00 53 1011.0
20200707173336 89 303 4.0 5.0 0.00 0.00 0.00 58 1011.4
20200707172832 89 327 2.0 2.0 0.00 0.00 0.00 54 1011.4
20200707172328 89 273 3.0 5.0 0.00 0.00 0.00 55 1011.4
20200707171827 88 343 0.0 2.0 0.00 0.00 0.00 58 1011.4
20200707171324 87 307 3.0 5.0 0.00 0.00 0.00 61 1011.4
20200707170820 88 33 2.0 2.0 0.00 0.00 0.00 56 1011.4
20200707170319 88 21 5.0 8.0 0.00 0.00 0.00 57 1011.4
20200707165816 88 42 2.0 2.0 0.00 0.00 0.00 56 1011.4
20200707165312 87 49 1.0 2.0 0.00 0.00 0.00 56 1011.4
20200707164809 87 24 5.0 5.0 0.00 0.00 0.00 57 1011.4
20200707164305 87 82 0.0 0.0 0.00 0.00 0.00 61 1011.7
20200707163804 87 316 3.0 5.0 0.00 0.00 0.00 60 1011.7
20200707163304 87 41 5.0 5.0 0.00 0.00 0.00 62 1011.7
20200707162804 87 23 4.0 5.0 0.00 0.00 0.00 60 1011.7
20200707162300 87 9 0.0 0.0 0.00 0.00 0.00 62 1011.7
20200707161758 87 46 3.0 5.0 0.00 0.00 0.00 62 1012.0
20200707161253 88 113 0.0 0.0 0.00 0.00 0.00 63 1012.0
20200707160749 87 356 3.0 5.0 0.00 0.00 0.00 64 1011.7
20200707160244 86 307 3.0 5.0 0.00 0.00 0.00 66 1012.0
20200707155740 86 321 4.0 5.0 0.00 0.00 0.00 67 1012.0
20200707155239 86 16 5.0 8.0 0.00 0.00 0.00 69 1012.0
20200707154737 85 51 0.0 0.0 0.00 0.00 0.00 68 1012.0
20200707154234 85 304 5.0 8.0 0.00 0.00 0.00 71 1012.0
20200707153732 85 310 7.0 8.0 0.00 0.00 0.00 69 1012.0
20200707153227 85 334 6.0 8.0 0.00 0.00 0.00 72 1012.0
20200707152723 85 339 5.0 8.0 0.00 0.00 0.00 70 1012.0
20200707152219 85 264 0.0 0.0 0.00 0.00 0.00 71 1012.0
20200707151716 85 289 2.0 2.0 0.00 0.00 0.00 72 1012.0
20200707151215 85 291 4.0 8.0 0.00 0.00 0.00 74 1012.0
20200707150712 85 265 0.0 0.0 0.00 0.00 0.00 72 1012.0
20200707150209 85 261 0.0 0.0 0.00 0.00 0.00 72 1012.0
20200707145705 84 321 2.0 5.0 0.00 0.00 0.00 72 1012.0
20200707145204 83 306 1.0 2.0 0.00 0.00 0.00 73 1012.0
20200707144700 83 326 6.0 8.0 0.00 0.00 0.00 74 1012.0
20200707144155 83 302 0.0 0.0 0.00 0.00 0.00 75 1012.0
20200707143654 82 310 2.0 2.0 0.00 0.00 0.00 75 1012.0
20200707143153 82 329 2.0 2.0 0.00 0.00 0.00 78 1012.0
20200707142652 82 232 0.0 0.0 0.00 0.00 0.00 77 1012.0
20200707142148 82 283 0.0 0.0 0.00 0.00 0.00 76 1012.0
20200707141645 81 276 0.0 2.0 0.00 0.00 0.00 77 1011.7
20200707141140 81 316 4.0 5.0 0.00 0.00 0.00 77 1011.7
20200707140635 81 220 0.0 2.0 0.00 0.00 0.00 79 1011.7
20200707140133 80 296 3.0 5.0 0.00 0.00 0.00 78 1012.0
20200707135630 80 350 3.0 5.0 0.00 0.00 0.00 78 1011.7
20200707135129 81 257 2.0 2.0 0.00 0.00 0.00 80 1011.7
20200707134625 80 347 0.0 0.0 0.00 0.00 0.00 80 1011.7
20200707134123 80 299 2.0 2.0 0.00 0.00 0.00 80 1012.0
20200707133619 80 315 4.0 5.0 0.00 0.00 0.00 80 1012.0
20200707133117 79 309 2.0 2.0 0.00 0.00 0.00 80 1011.7
20200707132613 79 256 2.0 2.0 0.00 0.00 0.00 81 1011.7
20200707132108 79 236 0.0 0.0 0.00 0.00 0.00 83 1012.0
20200707131606 78 263 0.0 0.0 0.00 0.00 0.00 83 1011.7
20200707131105 78 117 0.0 0.0 0.00 0.00 0.00 83 1011.7
20200707130604 78 326 1.0 2.0 0.00 0.00 0.00 84 1012.0
20200707130059 77 145 1.0 2.0 0.00 0.00 0.00 84 1011.7
20200707125555 77 127 0.0 0.0 0.00 0.00 0.00 85 1011.7
20200707125054 76 123 0.0 0.0 0.00 0.00 0.00 85 1011.7
20200707124550 76 175 1.0 2.0 0.00 0.00 0.00 86 1011.4
20200707124047 76 172 0.0 0.0 0.00 0.00 0.00 87 1011.4
20200707123544 75 154 0.0 0.0 0.00 0.00 0.00 88 1011.7
20200707123044 75 229 0.0 0.0 0.00 0.00 0.00 88 1011.4
20200707122541 75 131 0.0 0.0 0.00 0.00 0.00 88 1011.4
20200707122040 74 237 0.0 0.0 0.00 0.00 0.00 89 1011.4
20200707121537 74 232 0.0 0.0 0.00 0.00 0.00 89 1011.4
20200707121032 74 289 2.0 2.0 0.00 0.00 0.00 90 1011.4
20200707120527 73 314 2.0 2.0 0.00 0.00 0.00 90 1011.4
20200707120028 73 304 0.0 0.0 0.00 0.00 0.00 91 1011.4
20200707115525 72 226 0.0 0.0 0.00 0.00 0.00 91 1011.0
20200707115023 72 160 0.0 0.0 0.00 0.00 0.00 91 1011.0
20200707114523 71 234 0.0 0.0 0.00 0.00 0.00 91 1011.0
20200707114021 71 244 0.0 0.0 0.00 0.00 0.00 91 1011.4
20200707113519 71 274 0.0 0.0 0.00 0.00 0.00 92 1011.0
20200707113018 71 272 0.0 0.0 0.00 0.00 0.00 92 1011.0
20200707112515 71 283 0.0 0.0 0.00 0.00 0.00 92 1011.0
20200707112012 70 182 0.0 0.0 0.00 0.00 0.00 92 1011.0
20200707111509 70 157 0.0 0.0 0.00 0.00 0.00 92 1011.0
20200707111004 70 57 0.0 0.0 0.00 0.00 0.00 92 1010.7
20200707110459 70 139 0.0 0.0 0.00 0.00 0.00 92 1010.7
20200707105954 69 172 0.0 0.0 0.00 0.00 0.00 92 1010.7
20200707105451 69 175 0.0 0.0 0.00 0.00 0.00 92 1010.7
20200707104945 69 187 0.0 0.0 0.00 0.00 0.00 92 1010.7
20200707104442 69 158 0.0 0.0 0.00 0.00 0.00 92 1010.7
20200707103938 69 177 0.0 0.0 0.00 0.00 0.00 92 1010.7
20200707103436 69 30 0.0 0.0 0.00 0.00 0.00 91 1010.7
20200707102931 70 130 0.0 0.0 0.00 0.00 0.00 92 1010.7
20200707102436 69 216 0.0 0.0 0.00 0.00 0.00 91 1010.7
20200707101928 69 248 0.0 0.0 0.00 0.00 0.00 91 1010.7
20200707101426 70 164 0.0 0.0 0.00 0.00 0.00 91 1010.7
20200707100921 69 163 0.0 0.0 0.00 0.00 0.00 91 1010.7
20200707100416 70 145 0.0 0.0 0.00 0.00 0.00 91 1010.7
20200707095915 70 146 0.0 0.0 0.00 0.00 0.00 91 1010.7
20200707095415 70 143 0.0 0.0 0.00 0.00 0.00 91 1010.3
20200707094913 70 151 0.0 0.0 0.00 0.00 0.00 91 1010.3
20200707094409 70 163 0.0 0.0 0.00 0.00 0.00 91 1010.7
20200707093906 70 103 0.0 0.0 0.00 0.00 0.00 91 1010.7
20200707093405 70 93 0.0 0.0 0.00 0.00 0.00 91 1010.7
20200707092900 70 153 0.0 0.0 0.00 0.00 0.00 91 1010.7
20200707092357 70 180 0.0 0.0 0.00 0.00 0.00 91 1010.7
20200707091854 70 123 0.0 0.0 0.00 0.00 0.00 91 1010.7
20200707091348 70 84 0.0 0.0 0.00 0.00 0.00 91 1010.7
20200707090847 70 22 0.0 0.0 0.00 0.00 0.00 90 1010.7
20200707090345 70 314 0.0 0.0 0.00 0.00 0.00 90 1010.7
20200707085844 70 141 0.0 0.0 0.00 0.00 0.00 90 1010.7
20200707085343 70 194 0.0 0.0 0.00 0.00 0.00 89 1010.7
20200707084840 71 301 0.0 0.0 0.00 0.00 0.00 89 1010.3
20200707084336 71 177 0.0 0.0 0.00 0.00 0.00 88 1010.3
20200707083832 71 128 0.0 0.0 0.00 0.00 0.00 88 1010.3
20200707083327 71 137 0.0 0.0 0.00 0.00 0.00 87 1010.7
20200707082824 71 175 0.0 0.0 0.00 0.00 0.00 86 1010.7
20200707082322 71 257 0.0 0.0 0.00 0.00 0.00 85 1010.3
20200707081821 72 154 0.0 0.0 0.00 0.00 0.00 84 1010.3
20200707081319 72 167 0.0 0.0 0.00 0.00 0.00 83 1010.7
20200707080816 72 32 0.0 0.0 0.00 0.00 0.00 82 1010.7
20200707080315 72 186 0.0 0.0 0.00 0.00 0.00 81 1010.7
20200707075802 72 169 0.0 0.0 0.00 0.00 0.00 81 1010.7
20200707075257 73 156 0.0 0.0 0.00 0.00 0.00 80 1010.7
20200707074754 73 169 0.0 0.0 0.00 0.00 0.00 80 1011.0
20200707074254 73 207 2.0 2.0 0.00 0.00 0.00 80 1011.0
20200707073751 73 145 2.0 2.0 0.00 0.00 0.00 81 1011.0
20200707073247 73 132 0.0 0.0 0.00 0.00 0.00 81 1011.0
20200707072746 73 150 0.0 0.0 0.00 0.00 0.00 81 1011.4
20200707072244 73 158 0.0 0.0 0.00 0.00 0.00 82 1011.4
20200707071742 73 152 3.0 5.0 0.00 0.00 0.00 85 1011.4
20200707071239 73 184 1.0 2.0 0.00 0.00 0.00 88 1011.4
20200707070734 72 155 2.0 2.0 0.00 0.00 0.00 89 1011.4
20200707070231 72 139 0.0 0.0 0.00 0.00 0.00 90 1011.4
20200707065725 72 141 0.0 0.0 0.00 0.00 0.00 90 1011.4
20200707065224 72 185 0.0 0.0 0.00 0.00 0.00 90 1011.4
20200707064721 72 145 0.0 0.0 0.00 0.00 0.00 90 1011.4
20200707064217 72 119 0.0 2.0 0.00 0.00 0.00 90 1011.4
20200707063714 72 117 0.0 0.0 0.00 0.00 0.00 90 1011.0
20200707063207 72 163 0.0 0.0 0.00 0.00 0.00 90 1011.4
20200707062705 72 139 0.0 0.0 0.00 0.00 0.00 90 1011.0
20200707062204 72 155 0.0 0.0 0.00 0.00 0.00 89 1011.4
20200707061701 71 157 0.0 0.0 0.00 0.00 0.00 88 1011.4
20200707061159 72 117 0.0 0.0 0.00 0.00 0.00 88 1011.4
20200707060655 72 19 0.0 0.0 0.00 0.00 0.00 87 1011.0
20200707060154 72 46 0.0 0.0 0.00 0.00 0.00 84 1011.4
20200707055650 73 121 0.0 0.0 0.00 0.00 0.00 84 1011.4
20200707055148 73 177 0.0 0.0 0.00 0.00 0.00 83 1011.4
20200707054646 73 138 0.0 0.0 0.00 0.00 0.00 83 1011.4
20200707054142 73 180 0.0 0.0 0.00 0.00 0.00 83 1011.4
20200707053640 73 175 0.0 0.0 0.00 0.00 0.00 82 1011.4
20200707053140 73 172 0.0 0.0 0.00 0.00 0.00 81 1011.4
20200707052636 74 219 0.0 0.0 0.00 0.00 0.00 81 1011.4
20200707052135 74 184 0.0 0.0 0.00 0.00 0.00 80 1011.4
20200707051632 74 215 0.0 0.0 0.00 0.00 0.00 80 1011.4
20200707051126 74 277 0.0 0.0 0.00 0.00 0.00 79 1011.4
20200707050622 74 173 0.0 0.0 0.00 0.00 0.00 78 1011.4
20200707050121 75 163 0.0 0.0 0.00 0.00 0.00 78 1011.4
20200707045616 75 133 0.0 0.0 0.00 0.00 0.00 77 1011.4
20200707045111 75 175 0.0 0.0 0.00 0.00 0.00 76 1011.4
20200707044606 75 204 2.0 2.0 0.00 0.00 0.00 78 1011.4
20200707044105 75 188 3.0 5.0 0.00 0.00 0.00 83 1011.4
20200707043603 75 170 0.0 0.0 0.00 0.00 0.00 87 1011.4
20200707043100 75 130 2.0 2.0 0.00 0.00 0.00 88 1011.7
20200707042559 75 154 2.0 2.0 0.00 0.00 0.00 88 1011.7
20200707042058 75 170 0.0 0.0 0.00 0.00 0.00 88 1011.7
20200707041557 75 201 2.0 2.0 0.00 0.00 0.00 88 1011.4
20200707041055 74 191 2.0 2.0 0.00 0.00 0.00 88 1011.7
20200707040552 75 220 0.0 0.0 0.00 0.00 0.00 87 1011.4
20200707040050 75 217 0.0 0.0 0.00 0.00 0.00 87 1011.4
20200707035549 75 166 0.0 0.0 0.00 0.00 0.00 87 1011.4
20200707035045 75 160 0.0 0.0 0.00 0.00 0.00 88 1011.4
20200707034545 75 115 0.0 0.0 0.00 0.00 0.00 88 1011.4
20200707034041 75 345 0.0 0.0 0.00 0.00 0.00 88 1011.4
20200707033539 75 49 0.0 0.0 0.00 0.00 0.00 88 1011.4
20200707033034 75 92 0.0 0.0 0.00 0.00 0.00 88 1011.4
20200707032533 75 152 0.0 0.0 0.00 0.00 0.00 89 1011.4
20200707032026 75 170 0.0 0.0 0.00 0.00 0.00 88 1011.4
20200707031524 75 285 0.0 0.0 0.00 0.00 0.00 88 1011.0
20200707031020 75 321 0.0 0.0 0.00 0.00 0.00 87 1011.0
20200707030518 75 355 0.0 0.0 0.00 0.00 0.00 86 1011.0
20200707030014 76 320 0.0 0.0 0.00 0.00 0.00 83 1011.0
20200707025511 76 138 0.0 0.0 0.00 0.00 0.00 81 1011.0
20200707025010 76 149 0.0 0.0 0.00 0.00 0.00 79 1011.0
20200707024507 77 141 0.0 0.0 0.00 0.00 0.00 78 1011.0
20200707024003 77 125 0.0 0.0 0.00 0.00 0.00 77 1011.0
20200707023500 77 176 0.0 0.0 0.00 0.00 0.00 77 1011.0
20200707022957 77 160 0.0 0.0 0.00 0.00 0.00 77 1010.7
20200707022455 77 195 0.0 0.0 0.00 0.00 0.00 77 1010.7
20200707021952 78 192 0.0 0.0 0.00 0.00 0.00 76 1010.7
20200707021449 78 220 0.0 0.0 0.00 0.00 0.00 75 1010.7
20200707020945 78 185 0.0 0.0 0.00 0.00 0.00 74 1010.7
20200707020441 78 193 0.0 0.0 0.00 0.00 0.00 74 1010.3
20200707015938 79 164 0.0 0.0 0.00 0.00 0.00 73 1010.7
20200707015432 79 165 0.0 0.0 0.00 0.00 0.00 72 1010.3
20200707014931 79 176 0.0 0.0 0.00 0.00 0.00 71 1010.7
20200707014425 79 176 0.0 0.0 0.00 0.00 0.00 70 1010.3
20200707013923 80 177 0.0 0.0 0.00 0.00 0.00 70 1010.3
20200707013422 80 186 0.0 0.0 0.00 0.00 0.00 69 1010.3
20200707012920 81 241 0.0 0.0 0.00 0.00 0.00 67 1010.3
20200707012418 81 194 0.0 0.0 0.00 0.00 0.00 64 1010.0
20200707011913 82 162 0.0 0.0 0.00 0.00 0.00 64 1010.0
20200707011410 82 163 0.0 0.0 0.00 0.00 0.00 63 1010.3
20200707010905 83 174 0.0 0.0 0.00 0.00 0.00 61 1010.3
20200707010403 84 200 0.0 0.0 0.00 0.00 0.00 61 1010.3
20200707005858 84 164 0.0 0.0 0.00 0.00 0.00 61 1010.3
20200707005357 84 188 0.0 0.0 0.00 0.00 0.00 59 1010.3
20200707004855 84 281 0.0 0.0 0.00 0.00 0.00 59 1010.3
20200707004355 85 300 0.0 0.0 0.00 0.00 0.00 57 1010.3
20200707003851 86 263 0.0 0.0 0.00 0.00 0.00 52 1010.3
20200707003350 86 263 0.0 0.0 0.00 0.00 0.00 52 1010.3
20200707002846 85 246 0.0 0.0 0.00 0.00 0.00 56 1010.7
20200707002343 85 318 0.0 0.0 0.00 0.00 0.00 55 1010.3
20200707001838 86 17 2.0 2.0 0.00 0.00 0.00 56 1010.3
20200707001336 86 349 0.0 0.0 0.00 0.00 0.00 54 1010.7
20200707000831 86 23 1.0 2.0 0.00 0.00 0.00 54 1010.3
20200707000323 86 9 0.0 0.0 0.00 0.00 0.00 54 1010.3
20200706235823 86 311 0.0 0.0 0.00 0.00 0.00 52 1010.3
20200706235318 87 335 0.0 0.0 0.00 0.00 0.00 52 1010.3
20200706234817 86 316 0.0 0.0 0.00 0.00 0.00 53 1010.3
20200706234312 86 346 0.0 2.0 0.00 0.00 0.00 52 1010.3
20200706233810 86 305 0.0 0.0 0.00 0.00 0.00 53 1010.3
20200706233309 85 328 2.0 2.0 0.00 0.00 0.00 55 1010.3
20200706232804 86 332 3.0 5.0 0.00 0.00 0.00 53 1010.3
20200706232301 86 317 4.0 5.0 0.00 0.00 0.00 53 1010.3
20200706231757 86 308 3.0 5.0 0.00 0.00 0.00 52 1010.3
20200706231257 87 311 3.0 5.0 0.00 0.00 0.00 51 1010.3
20200706230752 87 301 3.0 5.0 0.00 0.00 0.00 49 1010.0
20200706230249 87 322 2.0 2.0 0.00 0.00 0.00 47 1010.0
20200706225749 87 304 3.0 5.0 0.00 0.00 0.00 50 1010.0
20200706225248 87 309 2.0 2.0 0.00 0.00 0.00 47 1010.0
20200706224747 89 348 0.0 0.0 0.00 0.00 0.00 45 1010.3
20200706224244 89 192 0.0 0.0 0.00 0.00 0.00 44 1010.0
20200706223743 88 254 0.0 0.0 0.00 0.00 0.00 46 1010.0
20200706223240 88 357 2.0 2.0 0.00 0.00 0.00 45 1010.3
20200706222736 88 307 1.0 2.0 0.00 0.00 0.00 44 1010.0
20200706222233 89 275 0.0 0.0 0.00 0.00 0.00 45 1010.3
20200706221729 88 289 2.0 2.0 0.00 0.00 0.00 45 1010.3
20200706221228 88 311 2.0 2.0 0.00 0.00 0.00 43 1010.3
20200706220724 90 241 0.0 0.0 0.00 0.00 0.00 41 1010.3
20200706220221 89 304 0.0 0.0 0.00 0.00 0.00 41 1010.3
20200706215719 89 292 2.0 2.0 0.00 0.00 0.00 47 1010.3
20200706215214 89 283 1.0 2.0 0.00 0.00 0.00 45 1010.3
20200706214710 89 312 2.0 2.0 0.00 0.00 0.00 42 1010.3
20200706214207 91 280 1.0 2.0 0.00 0.00 0.00 41 1010.3
20200706213703 92 177 0.0 0.0 0.00 0.00 0.00 37 1010.3
20200706213158 91 132 0.0 0.0 0.00 0.00 0.00 39 1010.3
20200706212656 90 157 0.0 0.0 0.00 0.00 0.00 42 1010.3
20200706212152 90 29 0.0 2.0 0.00 0.00 0.00 39 1010.3
20200706211651 88 353 0.0 0.0 0.00 0.00 0.00 41 1010.3
20200706211150 90 60 2.0 2.0 0.00 0.00 0.00 39 1010.7
20200706210649 96 210 0.0 0.0 0.00 0.00 0.00 35 1010.3
20200706210148 95 203 0.0 2.0 0.00 0.00 0.00 35 1010.7
20200706205644 95 248 0.0 0.0 0.00 0.00 0.00 36 1010.3
20200706205142 95 55 1.0 2.0 0.00 0.00 0.00 36 1010.3
20200706204639 93 131 0.0 0.0 0.00 0.00 0.00 39 1010.7
20200706204138 93 253 0.0 0.0 0.00 0.00 0.00 39 1010.7
20200706203635 94 63 0.0 0.0 0.00 0.00 0.00 38 1010.7
20200706203134 92 156 0.0 0.0 0.00 0.00 0.00 40 1011.0
20200706202632 91 113 2.0 2.0 0.00 0.00 0.00 40 1010.7
20200706202131 89 354 0.0 0.0 0.00 0.00 0.00 41 1011.0
20200706201627 88 123 2.0 2.0 0.00 0.00 0.00 38 1011.0
20200706201123 85 133 0.0 0.0 0.00 0.00 0.00 44 1011.0
20200706200622 83 162 0.0 0.0 0.00 0.00 0.00 45 1011.4
20200706200121 82 165 0.0 0.0 0.00 0.00 0.00 48 1011.4
20200706195615 81 193 1.0 2.0 0.00 0.00 0.00 49 1011.4